sensor_id;sensor_type;location;lat;lon;timestamp;P1;durP1;ratioP1;P2;durP2;ratioP2
37535;SDS011;23379;51.554;6.736;2023-08-24T00:01:06;7.65;;;5.50;;
37535;SDS011;23379;51.554;6.736;2023-08-24T00:03:32;12.15;;;5.80;;
37535;SDS011;23379;51.554;6.736;2023-08-24T00:05:57;11.52;;;5.40;;
37535;SDS011;23379;51.554;6.736;2023-08-24T00:08:23;9.18;;;5.80;;
37535;SDS011;23379;51.554;6.736;2023-08-24T00:10:48;9.27;;;6.13;;
37535;SDS011;23379;51.554;6.736;2023-08-24T00:13:14;11.18;;;6.55;;
37535;SDS011;23379;51.554;6.736;2023-08-24T00:15:40;8.30;;;6.50;;
37535;SDS011;23379;51.554;6.736;2023-08-24T00:18:06;13.77;;;7.00;;
37535;SDS011;23379;51.554;6.736;2023-08-24T00:20:32;9.20;;;6.13;;
37535;SDS011;23379;51.554;6.736;2023-08-24T00:22:58;10.15;;;7.30;;
37535;SDS011;23379;51.554;6.736;2023-08-24T00:25:24;8.30;;;5.63;;
37535;SDS011;23379;51.554;6.736;2023-08-24T00:27:50;8.38;;;6.55;;
37535;SDS011;23379;51.554;6.736;2023-08-24T00:30:17;11.20;;;6.38;;
37535;SDS011;23379;51.554;6.736;2023-08-24T00:32:42;9.02;;;6.20;;
37535;SDS011;23379;51.554;6.736;2023-08-24T00:35:08;11.35;;;6.85;;
37535;SDS011;23379;51.554;6.736;2023-08-24T00:37:35;10.52;;;6.30;;
37535;SDS011;23379;51.554;6.736;2023-08-24T00:40:01;10.75;;;7.10;;
37535;SDS011;23379;51.554;6.736;2023-08-24T00:42:33;12.18;;;6.60;;
37535;SDS011;23379;51.554;6.736;2023-08-24T00:45:02;9.95;;;6.55;;
37535;SDS011;23379;51.554;6.736;2023-08-24T00:47:29;17.25;;;7.05;;
37535;SDS011;23379;51.554;6.736;2023-08-24T00:49:54;13.20;;;6.90;;
37535;SDS011;23379;51.554;6.736;2023-08-24T00:52:20;9.30;;;6.57;;
37535;SDS011;23379;51.554;6.736;2023-08-24T00:54:46;9.70;;;6.57;;
37535;SDS011;23379;51.554;6.736;2023-08-24T00:57:12;11.00;;;5.80;;
37535;SDS011;23379;51.554;6.736;2023-08-24T00:59:38;13.40;;;6.90;;
37535;SDS011;23379;51.554;6.736;2023-08-24T01:02:04;14.93;;;6.57;;
37535;SDS011;23379;51.554;6.736;2023-08-24T01:04:29;13.23;;;6.75;;
37535;SDS011;23379;51.554;6.736;2023-08-24T01:06:55;11.20;;;6.80;;
37535;SDS011;23379;51.554;6.736;2023-08-24T01:09:20;9.10;;;6.13;;
37535;SDS011;23379;51.554;6.736;2023-08-24T01:17:00;10.70;;;6.53;;
37535;SDS011;23379;51.554;6.736;2023-08-24T01:20:02;11.35;;;6.70;;
37535;SDS011;23379;51.554;6.736;2023-08-24T01:24:57;15.05;;;6.95;;
37535;SDS011;23379;51.554;6.736;2023-08-24T01:27:29;12.15;;;6.95;;
37535;SDS011;23379;51.554;6.736;2023-08-24T01:29:57;11.63;;;7.28;;
37535;SDS011;23379;51.554;6.736;2023-08-24T01:32:24;11.93;;;6.97;;
37535;SDS011;23379;51.554;6.736;2023-08-24T01:34:49;11.38;;;7.25;;
37535;SDS011;23379;51.554;6.736;2023-08-24T01:37:14;14.43;;;6.85;;
37535;SDS011;23379;51.554;6.736;2023-08-24T01:40:01;14.38;;;7.47;;
37535;SDS011;23379;51.554;6.736;2023-08-24T01:42:51;13.95;;;6.68;;
37535;SDS011;23379;51.554;6.736;2023-08-24T01:45:20;10.82;;;6.93;;
37535;SDS011;23379;51.554;6.736;2023-08-24T01:47:47;10.73;;;6.90;;
37535;SDS011;23379;51.554;6.736;2023-08-24T01:50:14;11.50;;;7.95;;
37535;SDS011;23379;51.554;6.736;2023-08-24T01:52:40;12.45;;;7.78;;
37535;SDS011;23379;51.554;6.736;2023-08-24T01:55:06;10.13;;;7.70;;
37535;SDS011;23379;51.554;6.736;2023-08-24T01:57:32;10.73;;;6.72;;
37535;SDS011;23379;51.554;6.736;2023-08-24T01:59:57;11.40;;;7.75;;
37535;SDS011;23379;51.554;6.736;2023-08-24T02:02:23;12.73;;;7.32;;
37535;SDS011;23379;51.554;6.736;2023-08-24T02:04:48;13.45;;;7.60;;
37535;SDS011;23379;51.554;6.736;2023-08-24T02:07:14;16.50;;;7.78;;
37535;SDS011;23379;51.554;6.736;2023-08-24T02:09:39;12.45;;;7.63;;
37535;SDS011;23379;51.554;6.736;2023-08-24T02:12:05;16.02;;;8.20;;
37535;SDS011;23379;51.554;6.736;2023-08-24T02:14:30;10.95;;;7.97;;
37535;SDS011;23379;51.554;6.736;2023-08-24T02:16:55;12.07;;;7.63;;
37535;SDS011;23379;51.554;6.736;2023-08-24T02:19:21;15.20;;;8.07;;
37535;SDS011;23379;51.554;6.736;2023-08-24T02:21:46;9.98;;;7.47;;
37535;SDS011;23379;51.554;6.736;2023-08-24T02:24:11;12.27;;;7.90;;
37535;SDS011;23379;51.554;6.736;2023-08-24T02:26:37;11.15;;;8.93;;
37535;SDS011;23379;51.554;6.736;2023-08-24T02:29:02;10.32;;;7.50;;
37535;SDS011;23379;51.554;6.736;2023-08-24T02:31:27;14.65;;;8.10;;
37535;SDS011;23379;51.554;6.736;2023-08-24T02:33:53;17.15;;;8.57;;
37535;SDS011;23379;51.554;6.736;2023-08-24T02:36:19;15.35;;;8.90;;
37535;SDS011;23379;51.554;6.736;2023-08-24T02:38:44;11.55;;;7.50;;
37535;SDS011;23379;51.554;6.736;2023-08-24T02:41:09;12.35;;;8.82;;
37535;SDS011;23379;51.554;6.736;2023-08-24T02:43:36;13.88;;;8.30;;
37535;SDS011;23379;51.554;6.736;2023-08-24T02:46:02;14.35;;;8.75;;
37535;SDS011;23379;51.554;6.736;2023-08-24T02:48:28;12.80;;;8.23;;
37535;SDS011;23379;51.554;6.736;2023-08-24T02:50:54;13.07;;;8.35;;
37535;SDS011;23379;51.554;6.736;2023-08-24T02:53:19;10.70;;;8.07;;
37535;SDS011;23379;51.554;6.736;2023-08-24T02:55:45;12.40;;;8.32;;
37535;SDS011;23379;51.554;6.736;2023-08-24T02:58:10;15.82;;;8.73;;
37535;SDS011;23379;51.554;6.736;2023-08-24T03:00:37;14.50;;;8.68;;
37535;SDS011;23379;51.554;6.736;2023-08-24T03:03:03;12.93;;;9.10;;
37535;SDS011;23379;51.554;6.736;2023-08-24T03:05:30;10.95;;;8.52;;
37535;SDS011;23379;51.554;6.736;2023-08-24T03:07:56;14.05;;;8.50;;
37535;SDS011;23379;51.554;6.736;2023-08-24T03:10:21;14.63;;;8.63;;
37535;SDS011;23379;51.554;6.736;2023-08-24T03:12:47;15.85;;;9.38;;
37535;SDS011;23379;51.554;6.736;2023-08-24T03:15:12;14.93;;;8.57;;
37535;SDS011;23379;51.554;6.736;2023-08-24T03:17:37;9.82;;;8.07;;
37535;SDS011;23379;51.554;6.736;2023-08-24T03:20:03;11.23;;;7.95;;
37535;SDS011;23379;51.554;6.736;2023-08-24T03:22:28;11.00;;;8.25;;
37535;SDS011;23379;51.554;6.736;2023-08-24T03:24:54;13.15;;;8.55;;
37535;SDS011;23379;51.554;6.736;2023-08-24T03:27:19;9.90;;;7.90;;
37535;SDS011;23379;51.554;6.736;2023-08-24T03:29:44;11.70;;;8.80;;
37535;SDS011;23379;51.554;6.736;2023-08-24T03:32:10;10.30;;;7.72;;
37535;SDS011;23379;51.554;6.736;2023-08-24T03:34:35;12.27;;;8.43;;
37535;SDS011;23379;51.554;6.736;2023-08-24T03:37:01;16.20;;;8.95;;
37535;SDS011;23379;51.554;6.736;2023-08-24T03:39:26;10.25;;;7.57;;
37535;SDS011;23379;51.554;6.736;2023-08-24T03:41:52;13.10;;;8.23;;
37535;SDS011;23379;51.554;6.736;2023-08-24T03:44:17;12.75;;;7.95;;
37535;SDS011;23379;51.554;6.736;2023-08-24T03:46:42;14.40;;;8.15;;
37535;SDS011;23379;51.554;6.736;2023-08-24T03:49:08;11.80;;;8.20;;
37535;SDS011;23379;51.554;6.736;2023-08-24T03:51:33;12.15;;;8.52;;
37535;SDS011;23379;51.554;6.736;2023-08-24T03:53:58;11.95;;;8.48;;
37535;SDS011;23379;51.554;6.736;2023-08-24T03:56:24;11.82;;;8.02;;
37535;SDS011;23379;51.554;6.736;2023-08-24T03:58:50;12.85;;;8.25;;
37535;SDS011;23379;51.554;6.736;2023-08-24T04:01:15;15.68;;;8.30;;
37535;SDS011;23379;51.554;6.736;2023-08-24T04:03:40;15.50;;;8.48;;
37535;SDS011;23379;51.554;6.736;2023-08-24T04:06:06;11.50;;;8.50;;
37535;SDS011;23379;51.554;6.736;2023-08-24T04:08:31;16.90;;;8.98;;
37535;SDS011;23379;51.554;6.736;2023-08-24T04:10:56;13.13;;;8.82;;
37535;SDS011;23379;51.554;6.736;2023-08-24T04:13:22;15.43;;;8.90;;
37535;SDS011;23379;51.554;6.736;2023-08-24T04:15:47;13.60;;;8.75;;
37535;SDS011;23379;51.554;6.736;2023-08-24T04:18:13;11.00;;;8.38;;
37535;SDS011;23379;51.554;6.736;2023-08-24T04:20:38;14.57;;;9.77;;
37535;SDS011;23379;51.554;6.736;2023-08-24T04:23:03;14.40;;;9.35;;
37535;SDS011;23379;51.554;6.736;2023-08-24T04:25:29;19.20;;;10.15;;
37535;SDS011;23379;51.554;6.736;2023-08-24T04:27:55;17.80;;;10.13;;
37535;SDS011;23379;51.554;6.736;2023-08-24T04:30:20;14.40;;;10.45;;
37535;SDS011;23379;51.554;6.736;2023-08-24T04:32:46;12.85;;;9.98;;
37535;SDS011;23379;51.554;6.736;2023-08-24T04:35:12;15.45;;;9.63;;
37535;SDS011;23379;51.554;6.736;2023-08-24T04:37:37;14.10;;;10.82;;
37535;SDS011;23379;51.554;6.736;2023-08-24T04:40:03;15.25;;;10.90;;
37535;SDS011;23379;51.554;6.736;2023-08-24T04:42:29;14.98;;;10.93;;
37535;SDS011;23379;51.554;6.736;2023-08-24T04:44:55;16.67;;;11.10;;
37535;SDS011;23379;51.554;6.736;2023-08-24T04:47:20;17.10;;;11.07;;
37535;SDS011;23379;51.554;6.736;2023-08-24T04:49:46;14.13;;;11.07;;
37535;SDS011;23379;51.554;6.736;2023-08-24T04:52:11;16.42;;;10.93;;
37535;SDS011;23379;51.554;6.736;2023-08-24T04:54:36;13.82;;;10.18;;
37535;SDS011;23379;51.554;6.736;2023-08-24T04:57:02;16.35;;;10.75;;
37535;SDS011;23379;51.554;6.736;2023-08-24T04:59:27;16.45;;;10.25;;
37535;SDS011;23379;51.554;6.736;2023-08-24T05:01:52;20.05;;;10.23;;
37535;SDS011;23379;51.554;6.736;2023-08-24T05:04:18;16.15;;;10.38;;
37535;SDS011;23379;51.554;6.736;2023-08-24T05:06:43;13.90;;;9.93;;
37535;SDS011;23379;51.554;6.736;2023-08-24T05:09:09;15.55;;;9.90;;
37535;SDS011;23379;51.554;6.736;2023-08-24T05:11:34;15.52;;;10.80;;
37535;SDS011;23379;51.554;6.736;2023-08-24T05:13:59;16.35;;;10.57;;
37535;SDS011;23379;51.554;6.736;2023-08-24T05:16:25;17.05;;;11.25;;
37535;SDS011;23379;51.554;6.736;2023-08-24T05:18:50;14.27;;;11.00;;
37535;SDS011;23379;51.554;6.736;2023-08-24T05:21:16;17.88;;;11.75;;
37535;SDS011;23379;51.554;6.736;2023-08-24T05:23:41;18.00;;;12.23;;
37535;SDS011;23379;51.554;6.736;2023-08-24T05:26:06;16.85;;;11.82;;
37535;SDS011;23379;51.554;6.736;2023-08-24T05:28:32;16.10;;;11.30;;
37535;SDS011;23379;51.554;6.736;2023-08-24T05:30:58;17.52;;;10.93;;
37535;SDS011;23379;51.554;6.736;2023-08-24T05:33:25;18.05;;;10.43;;
37535;SDS011;23379;51.554;6.736;2023-08-24T05:35:51;17.92;;;11.13;;
37535;SDS011;23379;51.554;6.736;2023-08-24T05:38:17;17.60;;;10.90;;
37535;SDS011;23379;51.554;6.736;2023-08-24T05:40:43;14.73;;;9.90;;
37535;SDS011;23379;51.554;6.736;2023-08-24T05:43:12;14.30;;;9.65;;
37535;SDS011;23379;51.554;6.736;2023-08-24T05:45:37;17.38;;;10.32;;
37535;SDS011;23379;51.554;6.736;2023-08-24T05:48:05;14.65;;;9.98;;
37535;SDS011;23379;51.554;6.736;2023-08-24T05:50:31;13.35;;;10.20;;
37535;SDS011;23379;51.554;6.736;2023-08-24T05:52:56;13.95;;;10.23;;
37535;SDS011;23379;51.554;6.736;2023-08-24T05:55:21;14.50;;;9.95;;
37535;SDS011;23379;51.554;6.736;2023-08-24T05:57:47;15.35;;;10.35;;
37535;SDS011;23379;51.554;6.736;2023-08-24T06:00:13;16.33;;;11.15;;
37535;SDS011;23379;51.554;6.736;2023-08-24T06:02:39;16.23;;;10.77;;
37535;SDS011;23379;51.554;6.736;2023-08-24T06:05:05;16.63;;;11.68;;
37535;SDS011;23379;51.554;6.736;2023-08-24T06:07:31;15.55;;;11.60;;
37535;SDS011;23379;51.554;6.736;2023-08-24T06:09:57;16.65;;;11.45;;
37535;SDS011;23379;51.554;6.736;2023-08-24T06:12:23;13.55;;;10.63;;
37535;SDS011;23379;51.554;6.736;2023-08-24T06:14:48;14.38;;;10.40;;
37535;SDS011;23379;51.554;6.736;2023-08-24T06:17:13;12.82;;;10.43;;
37535;SDS011;23379;51.554;6.736;2023-08-24T06:19:39;19.20;;;10.10;;
37535;SDS011;23379;51.554;6.736;2023-08-24T06:22:05;14.90;;;10.25;;
37535;SDS011;23379;51.554;6.736;2023-08-24T06:24:30;16.08;;;11.07;;
37535;SDS011;23379;51.554;6.736;2023-08-24T06:26:56;13.40;;;10.32;;
37535;SDS011;23379;51.554;6.736;2023-08-24T06:29:21;14.32;;;9.68;;
37535;SDS011;23379;51.554;6.736;2023-08-24T06:31:47;12.68;;;9.27;;
37535;SDS011;23379;51.554;6.736;2023-08-24T06:34:12;15.18;;;9.00;;
37535;SDS011;23379;51.554;6.736;2023-08-24T06:36:37;13.60;;;9.88;;
37535;SDS011;23379;51.554;6.736;2023-08-24T06:39:03;13.50;;;9.60;;
37535;SDS011;23379;51.554;6.736;2023-08-24T06:41:32;15.13;;;8.95;;
37535;SDS011;23379;51.554;6.736;2023-08-24T06:43:59;10.77;;;8.27;;
37535;SDS011;23379;51.554;6.736;2023-08-24T06:46:24;9.48;;;7.60;;
37535;SDS011;23379;51.554;6.736;2023-08-24T06:48:49;12.45;;;8.85;;
37535;SDS011;23379;51.554;6.736;2023-08-24T06:51:15;13.77;;;9.02;;
37535;SDS011;23379;51.554;6.736;2023-08-24T06:53:41;14.93;;;8.95;;
37535;SDS011;23379;51.554;6.736;2023-08-24T06:56:07;11.82;;;8.70;;
37535;SDS011;23379;51.554;6.736;2023-08-24T06:58:33;14.70;;;8.43;;
37535;SDS011;23379;51.554;6.736;2023-08-24T07:00:59;13.07;;;9.90;;
37535;SDS011;23379;51.554;6.736;2023-08-24T07:03:25;16.30;;;8.60;;
37535;SDS011;23379;51.554;6.736;2023-08-24T07:05:50;8.85;;;7.82;;
37535;SDS011;23379;51.554;6.736;2023-08-24T07:08:15;11.80;;;7.68;;
37535;SDS011;23379;51.554;6.736;2023-08-24T07:10:41;12.05;;;8.27;;
37535;SDS011;23379;51.554;6.736;2023-08-24T07:13:07;12.13;;;7.97;;
37535;SDS011;23379;51.554;6.736;2023-08-24T07:15:34;13.93;;;8.07;;
37535;SDS011;23379;51.554;6.736;2023-08-24T07:18:00;11.82;;;6.95;;
37535;SDS011;23379;51.554;6.736;2023-08-24T07:20:26;10.25;;;7.13;;
37535;SDS011;23379;51.554;6.736;2023-08-24T07:22:52;11.82;;;7.60;;
37535;SDS011;23379;51.554;6.736;2023-08-24T07:25:18;13.05;;;7.68;;
37535;SDS011;23379;51.554;6.736;2023-08-24T07:27:46;9.23;;;6.10;;
37535;SDS011;23379;51.554;6.736;2023-08-24T07:30:11;9.57;;;6.32;;
37535;SDS011;23379;51.554;6.736;2023-08-24T07:32:37;10.25;;;6.00;;
37535;SDS011;23379;51.554;6.736;2023-08-24T07:35:02;7.75;;;5.65;;
37535;SDS011;23379;51.554;6.736;2023-08-24T07:37:28;6.53;;;5.03;;
37535;SDS011;23379;51.554;6.736;2023-08-24T07:39:54;9.30;;;6.00;;
37535;SDS011;23379;51.554;6.736;2023-08-24T07:42:19;9.40;;;5.90;;
37535;SDS011;23379;51.554;6.736;2023-08-24T07:44:46;9.65;;;5.57;;
37535;SDS011;23379;51.554;6.736;2023-08-24T07:47:11;7.68;;;5.43;;
37535;SDS011;23379;51.554;6.736;2023-08-24T07:49:37;7.50;;;5.00;;
37535;SDS011;23379;51.554;6.736;2023-08-24T07:52:08;6.88;;;4.57;;
37535;SDS011;23379;51.554;6.736;2023-08-24T07:54:33;7.65;;;4.78;;
37535;SDS011;23379;51.554;6.736;2023-08-24T07:56:59;10.93;;;4.55;;
37535;SDS011;23379;51.554;6.736;2023-08-24T07:59:24;6.32;;;4.20;;
37535;SDS011;23379;51.554;6.736;2023-08-24T08:01:49;7.80;;;4.28;;
37535;SDS011;23379;51.554;6.736;2023-08-24T08:04:15;8.18;;;3.90;;
37535;SDS011;23379;51.554;6.736;2023-08-24T08:06:41;10.40;;;4.13;;
37535;SDS011;23379;51.554;6.736;2023-08-24T08:09:07;7.00;;;3.72;;
37535;SDS011;23379;51.554;6.736;2023-08-24T08:11:32;8.00;;;3.83;;
37535;SDS011;23379;51.554;6.736;2023-08-24T08:13:57;8.52;;;3.45;;
37535;SDS011;23379;51.554;6.736;2023-08-24T08:16:23;10.50;;;3.38;;
37535;SDS011;23379;51.554;6.736;2023-08-24T08:18:48;7.72;;;3.08;;
37535;SDS011;23379;51.554;6.736;2023-08-24T08:21:15;5.85;;;2.75;;
37535;SDS011;23379;51.554;6.736;2023-08-24T08:23:44;2.93;;;2.40;;
37535;SDS011;23379;51.554;6.736;2023-08-24T08:26:10;4.55;;;2.78;;
37535;SDS011;23379;51.554;6.736;2023-08-24T08:28:36;7.95;;;2.47;;
37535;SDS011;23379;51.554;6.736;2023-08-24T08:31:02;4.28;;;2.25;;
37535;SDS011;23379;51.554;6.736;2023-08-24T08:33:28;2.85;;;1.88;;
37535;SDS011;23379;51.554;6.736;2023-08-24T08:35:54;6.25;;;2.72;;
37535;SDS011;23379;51.554;6.736;2023-08-24T08:38:19;6.40;;;2.30;;
37535;SDS011;23379;51.554;6.736;2023-08-24T08:40:47;4.40;;;2.47;;
37535;SDS011;23379;51.554;6.736;2023-08-24T08:43:15;4.25;;;2.20;;
37535;SDS011;23379;51.554;6.736;2023-08-24T08:45:40;2.80;;;1.75;;
37535;SDS011;23379;51.554;6.736;2023-08-24T08:48:06;8.15;;;2.10;;
37535;SDS011;23379;51.554;6.736;2023-08-24T08:50:32;3.33;;;1.75;;
37535;SDS011;23379;51.554;6.736;2023-08-24T08:53:00;5.15;;;2.10;;
37535;SDS011;23379;51.554;6.736;2023-08-24T08:55:26;3.58;;;2.10;;
37535;SDS011;23379;51.554;6.736;2023-08-24T08:57:54;3.67;;;1.85;;
37535;SDS011;23379;51.554;6.736;2023-08-24T09:00:24;2.33;;;1.52;;
37535;SDS011;23379;51.554;6.736;2023-08-24T09:02:49;3.33;;;1.52;;
37535;SDS011;23379;51.554;6.736;2023-08-24T09:05:17;4.75;;;1.80;;
37535;SDS011;23379;51.554;6.736;2023-08-24T09:07:44;6.57;;;3.85;;
37535;SDS011;23379;51.554;6.736;2023-08-24T09:10:10;4.63;;;2.20;;
37535;SDS011;23379;51.554;6.736;2023-08-24T09:12:35;2.42;;;1.75;;
37535;SDS011;23379;51.554;6.736;2023-08-24T09:15:07;2.78;;;1.85;;
37535;SDS011;23379;51.554;6.736;2023-08-24T09:17:33;4.35;;;1.77;;
37535;SDS011;23379;51.554;6.736;2023-08-24T09:19:59;4.72;;;1.58;;
37535;SDS011;23379;51.554;6.736;2023-08-24T09:22:34;2.83;;;1.65;;
37535;SDS011;23379;51.554;6.736;2023-08-24T09:25:01;2.83;;;1.90;;
37535;SDS011;23379;51.554;6.736;2023-08-24T09:27:29;7.60;;;2.78;;
37535;SDS011;23379;51.554;6.736;2023-08-24T09:29:54;2.53;;;1.90;;
37535;SDS011;23379;51.554;6.736;2023-08-24T09:32:33;4.88;;;2.10;;
37535;SDS011;23379;51.554;6.736;2023-08-24T09:35:02;2.67;;;1.70;;
37535;SDS011;23379;51.554;6.736;2023-08-24T09:37:33;5.68;;;2.17;;
37535;SDS011;23379;51.554;6.736;2023-08-24T09:40:03;4.95;;;2.15;;
37535;SDS011;23379;51.554;6.736;2023-08-24T09:42:42;5.22;;;1.77;;
37535;SDS011;23379;51.554;6.736;2023-08-24T09:45:11;3.47;;;2.15;;
37535;SDS011;23379;51.554;6.736;2023-08-24T09:47:37;3.33;;;2.05;;
37535;SDS011;23379;51.554;6.736;2023-08-24T09:50:03;3.92;;;2.22;;
37535;SDS011;23379;51.554;6.736;2023-08-24T09:52:31;4.63;;;2.60;;
37535;SDS011;23379;51.554;6.736;2023-08-24T09:55:02;5.20;;;1.77;;
37535;SDS011;23379;51.554;6.736;2023-08-24T09:57:32;4.55;;;2.10;;
37535;SDS011;23379;51.554;6.736;2023-08-24T10:00:02;4.10;;;2.00;;
37535;SDS011;23379;51.554;6.736;2023-08-24T10:02:34;5.15;;;2.00;;
37535;SDS011;23379;51.554;6.736;2023-08-24T10:05:02;3.67;;;2.05;;
37535;SDS011;23379;51.554;6.736;2023-08-24T10:07:28;3.67;;;2.05;;
37535;SDS011;23379;51.554;6.736;2023-08-24T10:09:58;3.90;;;1.60;;
37535;SDS011;23379;51.554;6.736;2023-08-24T10:12:28;3.15;;;2.10;;
37535;SDS011;23379;51.554;6.736;2023-08-24T10:15:00;4.47;;;2.28;;
37535;SDS011;23379;51.554;6.736;2023-08-24T10:17:32;2.70;;;1.50;;
37535;SDS011;23379;51.554;6.736;2023-08-24T10:19:59;3.67;;;1.60;;
37535;SDS011;23379;51.554;6.736;2023-08-24T10:22:34;2.97;;;1.65;;
37535;SDS011;23379;51.554;6.736;2023-08-24T10:25:01;3.17;;;1.67;;
37535;SDS011;23379;51.554;6.736;2023-08-24T10:27:27;2.92;;;1.73;;
37535;SDS011;23379;51.554;6.736;2023-08-24T10:29:53;3.90;;;1.48;;
37535;SDS011;23379;51.554;6.736;2023-08-24T10:32:22;3.20;;;1.80;;
37535;SDS011;23379;51.554;6.736;2023-08-24T10:34:51;3.60;;;1.77;;
37535;SDS011;23379;51.554;6.736;2023-08-24T10:37:22;3.05;;;1.67;;
37535;SDS011;23379;51.554;6.736;2023-08-24T10:39:50;4.32;;;1.70;;
37535;SDS011;23379;51.554;6.736;2023-08-24T10:42:15;4.47;;;1.40;;
37535;SDS011;23379;51.554;6.736;2023-08-24T10:44:44;4.55;;;2.22;;
37535;SDS011;23379;51.554;6.736;2023-08-24T10:47:15;3.92;;;1.42;;
37535;SDS011;23379;51.554;6.736;2023-08-24T10:52:20;2.13;;;1.50;;
37535;SDS011;23379;51.554;6.736;2023-08-24T10:54:47;5.65;;;1.60;;
37535;SDS011;23379;51.554;6.736;2023-08-24T10:57:17;4.25;;;1.40;;
37535;SDS011;23379;51.554;6.736;2023-08-24T10:59:45;2.35;;;1.30;;
37535;SDS011;23379;51.554;6.736;2023-08-24T11:02:17;2.10;;;1.27;;
37535;SDS011;23379;51.554;6.736;2023-08-24T11:07:29;6.85;;;1.75;;
37535;SDS011;23379;51.554;6.736;2023-08-24T11:09:54;3.88;;;1.85;;
37535;SDS011;23379;51.554;6.736;2023-08-24T11:15:33;3.42;;;1.95;;
37535;SDS011;23379;51.554;6.736;2023-08-24T11:20:47;2.53;;;1.42;;
37535;SDS011;23379;51.554;6.736;2023-08-24T11:23:21;6.28;;;1.50;;
37535;SDS011;23379;51.554;6.736;2023-08-24T11:25:48;1.70;;;1.45;;
37535;SDS011;23379;51.554;6.736;2023-08-24T11:28:17;3.08;;;1.58;;
37535;SDS011;23379;51.554;6.736;2023-08-24T11:30:44;2.67;;;1.48;;
37535;SDS011;23379;51.554;6.736;2023-08-24T11:33:10;5.32;;;1.50;;
37535;SDS011;23379;51.554;6.736;2023-08-24T11:35:38;3.35;;;1.55;;
37535;SDS011;23379;51.554;6.736;2023-08-24T11:38:05;3.42;;;1.75;;
37535;SDS011;23379;51.554;6.736;2023-08-24T11:40:30;5.90;;;1.80;;
37535;SDS011;23379;51.554;6.736;2023-08-24T11:42:56;2.97;;;1.38;;
37535;SDS011;23379;51.554;6.736;2023-08-24T11:45:22;6.00;;;1.95;;
37535;SDS011;23379;51.554;6.736;2023-08-24T11:47:48;4.95;;;1.48;;
37535;SDS011;23379;51.554;6.736;2023-08-24T11:50:16;2.97;;;1.45;;
37535;SDS011;23379;51.554;6.736;2023-08-24T11:52:42;4.13;;;1.70;;
37535;SDS011;23379;51.554;6.736;2023-08-24T11:55:08;5.68;;;2.53;;
37535;SDS011;23379;51.554;6.736;2023-08-24T11:57:35;6.72;;;2.60;;
37535;SDS011;23379;51.554;6.736;2023-08-24T12:00:04;9.55;;;2.28;;
37535;SDS011;23379;51.554;6.736;2023-08-24T12:02:32;3.42;;;2.00;;
37535;SDS011;23379;51.554;6.736;2023-08-24T12:04:58;3.55;;;2.08;;
37535;SDS011;23379;51.554;6.736;2023-08-24T12:07:24;4.47;;;1.95;;
37535;SDS011;23379;51.554;6.736;2023-08-24T12:09:49;6.10;;;1.60;;
37535;SDS011;23379;51.554;6.736;2023-08-24T12:12:18;3.90;;;1.85;;
37535;SDS011;23379;51.554;6.736;2023-08-24T12:14:48;6.22;;;2.30;;
37535;SDS011;23379;51.554;6.736;2023-08-24T12:17:14;8.10;;;2.45;;
37535;SDS011;23379;51.554;6.736;2023-08-24T12:19:44;5.80;;;2.17;;
37535;SDS011;23379;51.554;6.736;2023-08-24T12:22:20;4.70;;;2.20;;
37535;SDS011;23379;51.554;6.736;2023-08-24T12:24:49;6.25;;;2.28;;
37535;SDS011;23379;51.554;6.736;2023-08-24T12:27:19;4.70;;;2.15;;
37535;SDS011;23379;51.554;6.736;2023-08-24T12:29:45;5.30;;;2.03;;
37535;SDS011;23379;51.554;6.736;2023-08-24T12:32:11;6.05;;;2.40;;
37535;SDS011;23379;51.554;6.736;2023-08-24T12:34:37;5.75;;;2.13;;
37535;SDS011;23379;51.554;6.736;2023-08-24T12:37:02;6.47;;;2.33;;
37535;SDS011;23379;51.554;6.736;2023-08-24T12:39:28;4.85;;;2.40;;
37535;SDS011;23379;51.554;6.736;2023-08-24T12:41:59;4.03;;;2.20;;
37535;SDS011;23379;51.554;6.736;2023-08-24T12:44:25;4.55;;;2.10;;
37535;SDS011;23379;51.554;6.736;2023-08-24T12:46:50;3.97;;;2.03;;
37535;SDS011;23379;51.554;6.736;2023-08-24T12:49:16;4.43;;;2.25;;
37535;SDS011;23379;51.554;6.736;2023-08-24T12:51:42;5.65;;;2.63;;
37535;SDS011;23379;51.554;6.736;2023-08-24T12:54:07;5.43;;;2.20;;
37535;SDS011;23379;51.554;6.736;2023-08-24T12:56:33;4.35;;;2.10;;
37535;SDS011;23379;51.554;6.736;2023-08-24T12:59:00;5.40;;;2.40;;
37535;SDS011;23379;51.554;6.736;2023-08-24T13:01:25;5.68;;;2.40;;
37535;SDS011;23379;51.554;6.736;2023-08-24T13:03:51;5.50;;;1.90;;
37535;SDS011;23379;51.554;6.736;2023-08-24T13:06:17;7.25;;;2.30;;
37535;SDS011;23379;51.554;6.736;2023-08-24T13:08:42;7.32;;;2.15;;
37535;SDS011;23379;51.554;6.736;2023-08-24T13:11:09;8.43;;;2.03;;
37535;SDS011;23379;51.554;6.736;2023-08-24T13:13:36;5.88;;;2.38;;
37535;SDS011;23379;51.554;6.736;2023-08-24T13:16:01;8.70;;;2.55;;
37535;SDS011;23379;51.554;6.736;2023-08-24T13:18:27;8.18;;;2.35;;
37535;SDS011;23379;51.554;6.736;2023-08-24T13:20:52;6.15;;;2.35;;
37535;SDS011;23379;51.554;6.736;2023-08-24T13:23:18;4.60;;;1.92;;
37535;SDS011;23379;51.554;6.736;2023-08-24T13:25:43;4.88;;;2.53;;
37535;SDS011;23379;51.554;6.736;2023-08-24T13:28:08;3.95;;;2.05;;
37535;SDS011;23379;51.554;6.736;2023-08-24T13:30:34;5.13;;;2.35;;
37535;SDS011;23379;51.554;6.736;2023-08-24T13:32:59;5.97;;;1.95;;
37535;SDS011;23379;51.554;6.736;2023-08-24T13:35:25;5.63;;;2.13;;
37535;SDS011;23379;51.554;6.736;2023-08-24T13:37:51;6.45;;;2.17;;
37535;SDS011;23379;51.554;6.736;2023-08-24T13:40:16;6.55;;;2.13;;
37535;SDS011;23379;51.554;6.736;2023-08-24T13:42:42;4.93;;;2.20;;
37535;SDS011;23379;51.554;6.736;2023-08-24T13:45:07;4.68;;;1.75;;
37535;SDS011;23379;51.554;6.736;2023-08-24T13:47:33;5.13;;;1.58;;
37535;SDS011;23379;51.554;6.736;2023-08-24T13:49:58;3.83;;;1.63;;
37535;SDS011;23379;51.554;6.736;2023-08-24T13:52:27;3.13;;;1.80;;
37535;SDS011;23379;51.554;6.736;2023-08-24T13:54:53;3.13;;;1.50;;
37535;SDS011;23379;51.554;6.736;2023-08-24T13:57:19;2.92;;;1.42;;
37535;SDS011;23379;51.554;6.736;2023-08-24T13:59:44;2.72;;;1.58;;
37535;SDS011;23379;51.554;6.736;2023-08-24T14:02:10;5.30;;;1.67;;
37535;SDS011;23379;51.554;6.736;2023-08-24T14:04:37;6.10;;;1.73;;
37535;SDS011;23379;51.554;6.736;2023-08-24T14:07:04;5.85;;;1.63;;
37535;SDS011;23379;51.554;6.736;2023-08-24T14:09:30;4.55;;;1.90;;
37535;SDS011;23379;51.554;6.736;2023-08-24T14:11:57;1.80;;;1.20;;
37535;SDS011;23379;51.554;6.736;2023-08-24T14:14:23;3.30;;;1.67;;
37535;SDS011;23379;51.554;6.736;2023-08-24T14:16:53;3.15;;;1.67;;
37535;SDS011;23379;51.554;6.736;2023-08-24T14:19:20;5.45;;;2.03;;
37535;SDS011;23379;51.554;6.736;2023-08-24T14:21:46;5.20;;;2.25;;
37535;SDS011;23379;51.554;6.736;2023-08-24T14:24:11;3.72;;;1.50;;
37535;SDS011;23379;51.554;6.736;2023-08-24T14:26:36;2.78;;;1.70;;
37535;SDS011;23379;51.554;6.736;2023-08-24T14:29:04;4.07;;;1.80;;
37535;SDS011;23379;51.554;6.736;2023-08-24T14:31:30;3.90;;;2.08;;
37535;SDS011;23379;51.554;6.736;2023-08-24T14:33:56;3.58;;;1.60;;
37535;SDS011;23379;51.554;6.736;2023-08-24T14:36:21;5.25;;;2.10;;
37535;SDS011;23379;51.554;6.736;2023-08-24T14:38:48;5.30;;;1.70;;
37535;SDS011;23379;51.554;6.736;2023-08-24T14:41:14;7.32;;;1.95;;
37535;SDS011;23379;51.554;6.736;2023-08-24T14:43:40;6.63;;;2.30;;
37535;SDS011;23379;51.554;6.736;2023-08-24T14:46:06;4.30;;;2.28;;
37535;SDS011;23379;51.554;6.736;2023-08-24T14:48:32;3.90;;;1.90;;
37535;SDS011;23379;51.554;6.736;2023-08-24T14:50:58;5.70;;;2.45;;
37535;SDS011;23379;51.554;6.736;2023-08-24T14:53:24;4.90;;;2.60;;
37535;SDS011;23379;51.554;6.736;2023-08-24T14:55:50;5.65;;;2.70;;